createdAt,value
2022-11-23T00:00:35.068Z,55.13
2022-11-23T00:03:24.350Z,70.88
2022-11-23T00:05:54.847Z,68.50
2022-11-23T00:08:24.318Z,58.95
2022-11-23T00:10:53.466Z,58.70
2022-11-23T00:13:22.834Z,58.45
2022-11-23T00:15:52.030Z,65.43
2022-11-23T00:18:21.324Z,56.22
2022-11-23T00:20:50.441Z,60.20
2022-11-23T00:23:21.201Z,59.50
2022-11-23T00:25:50.298Z,62.83
2022-11-23T00:28:19.633Z,45.85
2022-11-23T00:30:51.274Z,57.25
2022-11-23T00:33:20.735Z,62.33
2022-11-23T00:35:49.865Z,57.63
2022-11-23T00:38:20.718Z,63.28
2022-11-23T00:40:51.272Z,55.97
2022-11-23T00:43:20.672Z,65.32
2022-11-23T00:45:51.092Z,52.08
2022-11-23T00:48:20.362Z,62.78
2022-11-23T00:50:49.581Z,60.90
2022-11-23T00:53:20.362Z,53.10
2022-11-23T00:55:53.631Z,54.53
2022-11-23T00:58:23.021Z,62.95
2022-11-23T01:01:00.801Z,60.33
2022-11-23T01:03:31.320Z,57.45
2022-11-23T01:06:06.592Z,57.28
2022-11-23T01:08:37.527Z,55.63
2022-11-23T01:11:09.281Z,49.97
2022-11-23T01:13:39.218Z,55.45
2022-11-23T01:16:12.026Z,63.42
2022-11-23T01:18:41.460Z,49.75
2022-11-23T01:21:10.615Z,78.95
2022-11-23T01:23:43.416Z,69.07
2022-11-23T01:26:13.451Z,72.90
2022-11-23T01:28:42.832Z,65.78
2022-11-23T01:31:13.974Z,57.65
2022-11-23T01:33:46.736Z,68.45
2022-11-23T01:36:18.268Z,57.85
2022-11-23T01:38:50.121Z,65.18
2022-11-23T01:41:22.140Z,73.32
2022-11-23T01:43:52.030Z,70.32
2022-11-23T01:46:21.598Z,56.83
2022-11-23T01:48:54.335Z,56.67
2022-11-23T01:51:30.229Z,65.70
2022-11-23T01:54:04.561Z,81.45
2022-11-23T01:56:38.922Z,66.75
2022-11-23T01:59:12.277Z,58.40
2022-11-23T02:01:41.401Z,71.82
2022-11-23T02:04:14.396Z,65.32
2022-11-23T02:06:49.160Z,62.65
2022-11-23T02:09:21.297Z,77.38
2022-11-23T02:11:50.430Z,69.68
2022-11-23T02:14:23.348Z,75.70
2022-11-23T02:16:56.547Z,60.50
2022-11-23T02:19:37.413Z,54.75
2022-11-23T02:22:13.605Z,54.47
2022-11-23T02:24:50.705Z,52.28
2022-11-23T02:27:22.486Z,58.65
2022-11-23T02:29:53.628Z,56.35
2022-11-23T02:32:24.960Z,58.22
2022-11-23T02:34:58.547Z,63.92
2022-11-23T02:37:27.708Z,54.75
2022-11-23T02:40:00.922Z,55.95
2022-11-23T02:42:32.973Z,53.50
2022-11-23T02:45:10.123Z,60.88
2022-11-23T02:47:39.626Z,60.08
2022-11-23T02:50:11.756Z,64.40
2022-11-23T02:52:41.511Z,59.40
2022-11-23T02:55:11.829Z,56.55
2022-11-23T02:57:42.323Z,54.88
2022-11-23T03:00:14.259Z,55.75
2022-11-23T03:02:45.046Z,49.80
2022-11-23T03:05:14.650Z,57.03
2022-11-23T03:07:44.016Z,52.38
2022-11-23T03:10:15.410Z,49.08
2022-11-23T03:12:47.703Z,48.75
2022-11-23T03:15:17.352Z,51.60
2022-11-23T03:17:46.634Z,49.33
2022-11-23T03:20:18.734Z,49.95
2022-11-23T03:22:51.396Z,52.58
2022-11-23T03:25:22.581Z,54.70
2022-11-23T03:27:56.578Z,53.50
2022-11-23T03:35:39.033Z,48.63
2022-11-23T03:38:23.855Z,51.22
2022-11-23T03:40:54.533Z,45.35
2022-11-23T03:43:30.689Z,49.58
2022-11-23T03:45:59.948Z,48.47
2022-11-23T03:48:29.348Z,49.47
2022-11-23T03:50:58.573Z,43.17
2022-11-23T03:53:28.041Z,49.90
2022-11-23T03:55:58.278Z,49.13
2022-11-23T03:58:32.112Z,52.58
2022-11-23T04:01:01.998Z,51.47
2022-11-23T04:03:31.527Z,42.88
2022-11-23T04:06:03.220Z,39.35
2022-11-23T04:08:51.028Z,45.75
2022-11-23T04:11:31.140Z,41.17
2022-11-23T04:14:01.970Z,45.28
2022-11-23T04:16:31.605Z,48.33
2022-11-23T04:19:01.149Z,41.92
2022-11-23T04:21:30.294Z,48.30
2022-11-23T04:24:00.731Z,50.72
2022-11-23T04:26:33.125Z,44.05
2022-11-23T04:29:04.079Z,50.13
2022-11-23T04:31:35.548Z,47.90
2022-11-23T04:34:14.886Z,50.88
2022-11-23T04:36:44.600Z,48.78
2022-11-23T04:39:15.860Z,54.40
2022-11-23T04:42:12.356Z,49.17
2022-11-23T04:44:43.369Z,47.67
2022-11-23T04:47:13.061Z,55.40
2022-11-23T04:49:42.589Z,43.95
2022-11-23T04:52:12.412Z,49.05
2022-11-23T04:54:47.645Z,49.45
2022-11-23T04:57:16.883Z,54.35
2022-11-23T04:59:49.394Z,41.28
2022-11-23T05:02:18.667Z,53.83
2022-11-23T05:04:54.264Z,60.58
2022-11-23T05:07:27.184Z,49.83
2022-11-23T05:10:00.666Z,55.40
2022-11-23T05:12:29.738Z,60.10
2022-11-23T05:15:02.265Z,65.45
2022-11-23T05:17:36.944Z,77.78
2022-11-23T05:20:12.404Z,69.30
2022-11-23T05:22:46.401Z,66.38
2022-11-23T05:25:18.960Z,63.40
2022-11-23T05:27:52.221Z,62.50
2022-11-23T05:30:23.217Z,66.68
2022-11-23T05:32:53.103Z,56.10
2022-11-23T05:35:24.351Z,63.10
2022-11-23T05:37:53.793Z,63.95
2022-11-23T05:40:23.553Z,69.90
2022-11-23T05:42:57.914Z,71.72
2022-11-23T05:45:28.961Z,57.47
2022-11-23T05:48:00.877Z,61.08
2022-11-23T05:50:46.674Z,76.70
2022-11-23T05:53:31.940Z,77.88
2022-11-23T05:56:10.121Z,90.60
2022-11-23T05:58:48.690Z,79.78
2022-11-23T06:01:19.644Z,79.30
2022-11-23T06:03:50.587Z,72.60
2022-11-23T06:06:20.526Z,72.75
2022-11-23T06:08:49.725Z,73.78
2022-11-23T06:11:22.817Z,67.53
2022-11-23T06:13:51.930Z,68.85
2022-11-23T06:16:23.300Z,69.90
2022-11-23T06:19:02.840Z,83.22
2022-11-23T06:21:32.457Z,76.15
2022-11-23T06:24:02.578Z,80.60
2022-11-23T06:26:33.946Z,58.30
2022-11-23T06:29:03.236Z,69.97
2022-11-23T06:31:34.560Z,94.10
2022-11-23T06:34:03.988Z,72.68
2022-11-23T06:36:35.456Z,74.60
2022-11-23T06:39:05.158Z,117.75
2022-11-23T06:41:35.204Z,92.95
2022-11-23T06:44:05.480Z,81.88
2022-11-23T06:46:43.756Z,82.28
2022-11-23T06:49:12.788Z,77.57
2022-11-23T06:51:44.398Z,78.70
2022-11-23T06:54:13.721Z,70.63
2022-11-23T06:56:43.957Z,82.68
2022-11-23T06:59:13.645Z,81.07
2022-11-23T07:01:44.668Z,77.25
2022-11-23T07:04:16.028Z,80.57
2022-11-23T07:06:50.408Z,77.35
2022-11-23T07:09:30.023Z,78.38
2022-11-23T07:12:13.127Z,80.35
2022-11-23T07:14:42.289Z,71.68
2022-11-23T07:17:17.393Z,79.25
2022-11-23T07:19:48.453Z,68.57
2022-11-23T07:22:18.069Z,77.28
2022-11-23T07:24:47.298Z,85.35
2022-11-23T07:27:18.513Z,82.65
2022-11-23T07:29:47.882Z,91.22
2022-11-23T07:32:18.561Z,81.72
2022-11-23T07:34:47.784Z,75.90
2022-11-23T07:37:18.136Z,92.93
2022-11-23T07:39:58.518Z,82.70
2022-11-23T07:42:36.842Z,81.75
2022-11-23T07:45:10.474Z,99.28
2022-11-23T07:47:42.880Z,76.30
2022-11-23T07:50:13.809Z,70.03
2022-11-23T07:52:43.135Z,71.07
2022-11-23T07:55:12.148Z,83.10
2022-11-23T07:57:41.427Z,85.95
2022-11-23T08:00:12.223Z,73.85
2022-11-23T08:03:04.169Z,77.28
2022-11-23T08:05:35.723Z,74.03
2022-11-23T08:08:05.537Z,79.38
2022-11-23T08:10:38.771Z,79.28
2022-11-23T08:13:11.385Z,66.35
2022-11-23T08:15:40.507Z,67.53
2022-11-23T08:18:11.639Z,71.00
2022-11-23T08:20:40.973Z,64.32
2022-11-23T08:23:10.394Z,73.95
2022-11-23T08:25:39.693Z,69.15
2022-11-23T08:28:09.124Z,66.72
2022-11-23T08:30:38.335Z,63.72
2022-11-23T08:33:09.650Z,70.85
2022-11-23T08:35:41.342Z,74.88
2022-11-23T08:38:12.356Z,77.95
2022-11-23T08:40:41.632Z,73.28
2022-11-23T08:43:11.013Z,76.43
2022-11-23T08:45:40.289Z,61.67
2022-11-23T08:48:10.450Z,65.60
2022-11-23T08:50:41.149Z,75.20
2022-11-23T08:53:11.338Z,70.55
2022-11-23T08:55:40.718Z,71.25
2022-11-23T08:58:13.321Z,65.13
2022-11-23T09:00:42.690Z,73.45
2022-11-23T09:03:12.031Z,68.95
2022-11-23T09:05:42.591Z,75.47
2022-11-23T09:08:12.068Z,72.50
2022-11-23T09:10:41.258Z,75.97
2022-11-23T09:13:10.757Z,76.18
2022-11-23T09:15:39.957Z,93.05
2022-11-23T09:18:10.266Z,90.97
2022-11-23T09:20:42.792Z,74.32
2022-11-23T09:23:14.250Z,76.65
2022-11-23T09:25:47.814Z,67.10
2022-11-23T09:28:19.584Z,72.63
2022-11-23T09:30:48.960Z,65.38
2022-11-23T09:33:18.362Z,70.43
2022-11-23T09:35:49.031Z,70.25
2022-11-23T09:38:18.426Z,60.80
2022-11-23T09:40:47.611Z,63.97
2022-11-23T09:43:47.934Z,71.85
2022-11-23T09:46:25.971Z,48.65
2022-11-23T09:49:10.785Z,65.20
2022-11-23T09:51:43.339Z,69.25
2022-11-23T09:54:29.982Z,52.92
2022-11-23T09:57:01.967Z,65.43
2022-11-23T09:59:42.124Z,63.63
2022-11-23T10:02:20.876Z,62.58
2022-11-23T10:04:52.059Z,75.45
2022-11-23T10:07:48.587Z,67.38
2022-11-23T10:10:35.402Z,70.38
2022-11-23T10:13:17.623Z,62.17
2022-11-23T10:16:01.974Z,62.45
2022-11-23T10:18:44.033Z,62.42
2022-11-23T10:21:24.594Z,58.58
2022-11-23T10:24:05.557Z,67.15
2022-11-23T10:26:38.890Z,56.83
2022-11-23T10:29:14.968Z,67.40
2022-11-23T10:31:54.027Z,57.50
2022-11-23T10:34:39.276Z,66.43
2022-11-23T10:37:13.125Z,61.22
2022-11-23T10:39:43.812Z,66.30
2022-11-23T10:42:23.919Z,68.80
2022-11-23T10:44:55.662Z,62.45
2022-11-23T10:47:41.039Z,71.28
2022-11-23T10:50:25.892Z,70.32
2022-11-23T10:52:58.188Z,70.72
2022-11-23T10:55:31.446Z,58.53
2022-11-23T10:58:01.853Z,61.28
2022-11-23T11:00:31.785Z,57.38
2022-11-23T11:03:03.494Z,58.25
2022-11-23T11:08:29.041Z,55.55
2022-11-23T11:11:06.221Z,66.25
2022-11-23T11:13:43.869Z,66.72
2022-11-23T11:16:22.739Z,56.08
2022-11-23T11:18:52.413Z,57.80
2022-11-23T11:21:23.763Z,61.42
2022-11-23T11:23:55.794Z,59.90
2022-11-23T11:26:28.208Z,63.15
2022-11-23T11:28:59.274Z,55.13
2022-11-23T11:31:43.569Z,55.95
2022-11-23T11:34:24.927Z,63.92
2022-11-23T11:37:05.482Z,55.75
2022-11-23T11:39:43.532Z,60.47
2022-11-23T11:42:21.064Z,59.00
2022-11-23T11:44:55.607Z,58.35
2022-11-23T11:47:32.319Z,57.60
2022-11-23T11:50:12.411Z,61.15
2022-11-23T11:52:43.871Z,65.80
2022-11-23T11:55:17.712Z,66.05
2022-11-23T11:57:51.284Z,62.08
2022-11-23T12:00:22.003Z,66.47
2022-11-23T12:03:06.620Z,63.08
2022-11-23T12:05:43.413Z,75.60
2022-11-23T12:08:17.700Z,65.28
2022-11-23T12:10:51.984Z,58.85
2022-11-23T12:13:25.897Z,61.75
2022-11-23T12:16:03.601Z,69.97
2022-11-23T12:18:55.460Z,64.32
2022-11-23T12:21:55.697Z,64.15
2022-11-23T12:24:41.552Z,59.10
2022-11-23T12:27:21.200Z,61.05
2022-11-23T12:30:05.310Z,48.47
2022-11-23T12:32:44.995Z,51.63
2022-11-23T12:35:40.429Z,70.28
2022-11-23T12:38:21.576Z,58.03
2022-11-23T12:41:16.373Z,57.13
2022-11-23T12:44:05.048Z,56.78
2022-11-23T12:46:45.999Z,56.90
2022-11-23T12:49:36.128Z,55.22
2022-11-23T12:52:21.879Z,53.45
2022-11-23T12:55:00.702Z,53.75
2022-11-23T12:57:40.315Z,56.20
2022-11-23T13:00:17.413Z,57.80
2022-11-23T13:07:26.281Z,52.40
2022-11-23T13:10:25.961Z,50.20
2022-11-23T13:13:21.660Z,50.90
2022-11-23T13:16:16.598Z,52.47
2022-11-23T13:19:17.342Z,45.33
2022-11-23T13:21:51.524Z,44.08
2022-11-23T13:24:29.505Z,52.05
2022-11-23T13:27:43.706Z,51.13
2022-11-23T13:30:35.593Z,53.22
2022-11-23T13:33:35.842Z,44.83
2022-11-23T13:36:15.274Z,49.33
2022-11-23T13:38:48.725Z,57.80
2022-11-23T13:41:57.999Z,57.00
2022-11-23T13:44:30.537Z,50.80
2022-11-23T13:47:08.922Z,51.78
2022-11-23T13:49:42.944Z,69.55
2022-11-23T13:52:27.421Z,58.22
2022-11-23T13:55:05.344Z,57.25
2022-11-23T13:57:36.908Z,54.72
2022-11-23T14:00:43.227Z,52.80
2022-11-23T14:03:48.971Z,44.35
2022-11-23T14:06:33.785Z,46.63
2022-11-23T14:09:12.588Z,46.55
2022-11-23T14:11:52.451Z,44.85
2022-11-23T14:14:24.753Z,43.35
2022-11-23T14:17:25.414Z,54.20
2022-11-23T14:20:20.319Z,46.38
2022-11-23T14:23:05.584Z,49.63
2022-11-23T14:25:50.429Z,52.00
2022-11-23T14:28:35.482Z,47.33
2022-11-23T14:31:19.060Z,49.33
2022-11-23T14:33:55.817Z,49.47
2022-11-23T14:36:36.597Z,51.70
2022-11-23T14:39:47.268Z,52.88
2022-11-23T14:42:22.322Z,52.97
2022-11-23T14:44:52.097Z,46.55
2022-11-23T14:47:28.850Z,53.22
2022-11-23T14:49:58.586Z,60.67
2022-11-23T14:52:30.590Z,53.03
2022-11-23T14:55:02.743Z,54.38
2022-11-23T14:57:41.739Z,52.42
2022-11-23T15:00:28.697Z,53.75
2022-11-23T15:03:04.585Z,53.08
2022-11-23T15:05:47.471Z,60.10
2022-11-23T15:08:21.332Z,57.15
2022-11-23T15:11:01.485Z,54.05
2022-11-23T15:13:42.936Z,59.17
2022-11-23T15:16:15.913Z,70.10
2022-11-23T15:18:46.017Z,65.95
2022-11-23T15:21:26.528Z,68.82
2022-11-23T15:23:58.356Z,72.95
2022-11-23T15:29:35.353Z,61.22
2022-11-23T15:32:36.297Z,70.75
2022-11-23T15:35:08.709Z,50.75
2022-11-23T15:37:44.068Z,55.67
2022-11-23T15:40:18.353Z,71.15
2022-11-23T15:42:48.634Z,75.00
2022-11-23T15:45:39.240Z,52.85
2022-11-23T15:48:16.167Z,55.70
2022-11-23T15:50:50.624Z,65.32
2022-11-23T15:53:20.593Z,58.60
2022-11-23T15:55:51.428Z,56.47
2022-11-23T15:58:22.624Z,62.22
2022-11-23T16:00:56.971Z,53.22
2022-11-23T16:03:33.544Z,54.15
2022-11-23T16:06:29.475Z,53.95
2022-11-23T16:08:58.652Z,59.00
2022-11-23T16:11:34.740Z,59.63
2022-11-23T16:14:18.184Z,96.30
2022-11-23T16:17:00.333Z,72.60
2022-11-23T16:19:31.683Z,64.30
2022-11-23T16:22:04.540Z,54.45
2022-11-23T16:24:36.807Z,61.38
2022-11-23T16:27:15.111Z,64.20
2022-11-23T16:29:44.451Z,75.35
2022-11-23T16:32:26.900Z,61.80
2022-11-23T16:34:59.004Z,63.42
2022-11-23T16:37:29.001Z,60.20
2022-11-23T16:39:58.041Z,60.03
2022-11-23T16:42:27.634Z,66.70
2022-11-23T16:44:56.799Z,86.18
2022-11-23T16:47:30.167Z,83.85
2022-11-23T16:49:59.594Z,98.07
2022-11-23T16:52:29.023Z,62.78
2022-11-23T16:54:58.080Z,80.68
2022-11-23T16:57:34.681Z,73.85
2022-11-23T17:00:05.942Z,66.35
2022-11-23T17:02:36.950Z,98.82
2022-11-23T17:05:14.231Z,96.35
2022-11-23T17:07:43.876Z,127.45
2022-11-23T17:10:13.872Z,85.93
2022-11-23T17:12:51.610Z,88.32
2022-11-23T17:15:23.443Z,69.03
2022-11-23T17:17:54.390Z,83.28
2022-11-23T17:20:24.758Z,82.25
2022-11-23T17:23:00.154Z,77.88
2022-11-23T17:25:30.548Z,74.35
2022-11-23T17:28:01.435Z,72.53
2022-11-23T17:30:31.438Z,69.45
2022-11-23T17:33:02.273Z,82.00
2022-11-23T17:35:35.377Z,66.10
2022-11-23T17:38:08.013Z,62.80
2022-11-23T17:40:37.131Z,68.72
2022-11-23T17:43:06.630Z,81.28
2022-11-23T17:45:35.990Z,94.10
2022-11-23T17:48:10.840Z,104.93
2022-11-23T17:50:40.203Z,77.88
2022-11-23T17:53:11.525Z,71.90
2022-11-23T17:55:41.414Z,74.68
2022-11-23T17:58:12.777Z,80.78
2022-11-23T18:00:42.347Z,64.07
2022-11-23T18:03:13.195Z,89.82
2022-11-23T18:05:42.385Z,92.93
2022-11-23T18:08:12.524Z,74.55
2022-11-23T18:10:41.580Z,101.72
2022-11-23T18:13:11.127Z,76.60
2022-11-23T18:15:40.584Z,90.20
2022-11-23T18:18:10.111Z,89.93
2022-11-23T18:20:40.655Z,77.00
2022-11-23T18:23:10.278Z,93.07
2022-11-23T18:25:39.522Z,84.40
2022-11-23T18:28:08.932Z,98.43
2022-11-23T18:30:38.278Z,97.50
2022-11-23T18:33:07.809Z,80.53
2022-11-23T18:35:36.980Z,86.53
2022-11-23T18:38:08.028Z,91.30
2022-11-23T18:40:37.321Z,90.85
2022-11-23T18:43:06.672Z,88.18
2022-11-23T18:45:35.924Z,82.88
2022-11-23T18:48:07.901Z,77.60
2022-11-23T18:50:37.284Z,88.32
2022-11-23T18:53:08.284Z,87.90
2022-11-23T18:55:37.372Z,75.60
2022-11-23T18:58:07.420Z,71.05
2022-11-23T19:00:36.619Z,75.30
2022-11-23T19:03:06.208Z,71.47
2022-11-23T19:05:37.113Z,71.80
2022-11-23T19:08:09.142Z,70.53
2022-11-23T19:10:39.646Z,68.13
2022-11-23T19:13:09.284Z,69.15
2022-11-23T19:15:38.956Z,82.82
2022-11-23T19:18:08.431Z,64.15
2022-11-23T19:20:37.689Z,72.15
2022-11-23T19:23:08.529Z,59.08
2022-11-23T19:25:37.671Z,72.22
2022-11-23T19:28:07.257Z,73.50
2022-11-23T19:30:36.400Z,71.95
2022-11-23T19:33:05.897Z,70.22
2022-11-23T19:35:35.385Z,77.80
2022-11-23T19:38:04.818Z,75.70
2022-11-23T19:40:35.290Z,64.72
2022-11-23T19:43:05.006Z,72.57
2022-11-23T19:45:34.155Z,79.82
2022-11-23T19:48:03.564Z,81.55
2022-11-23T19:50:32.721Z,98.38
2022-11-23T19:53:12.284Z,75.22
2022-11-23T19:55:43.024Z,73.63
2022-11-23T19:58:12.601Z,69.90
2022-11-23T20:00:45.619Z,80.88
2022-11-23T20:03:15.507Z,98.65
2022-11-23T20:05:56.409Z,100.07
2022-11-23T20:08:25.743Z,69.60
2022-11-23T20:10:56.684Z,79.45
2022-11-23T20:13:26.441Z,80.15
2022-11-23T20:15:55.624Z,87.35
2022-11-23T20:18:29.555Z,65.43
2022-11-23T20:20:59.146Z,83.20
2022-11-23T20:23:28.610Z,72.70
2022-11-23T20:25:59.836Z,82.88
2022-11-23T20:28:29.538Z,71.10
2022-11-23T20:31:03.799Z,69.78
2022-11-23T20:33:33.419Z,80.68
2022-11-23T20:36:10.349Z,86.35
2022-11-23T20:38:40.131Z,90.22
2022-11-23T20:41:18.872Z,91.40
2022-11-23T20:43:49.990Z,80.78
2022-11-23T20:46:38.309Z,81.80
2022-11-23T20:49:08.628Z,74.43
2022-11-23T20:51:37.968Z,54.45
2022-11-23T20:54:07.405Z,61.75
2022-11-23T20:56:39.881Z,56.47
2022-11-23T20:59:09.301Z,62.47
2022-11-23T21:01:40.575Z,57.53
2022-11-23T21:04:10.526Z,59.38
2022-11-23T21:06:40.335Z,47.97
2022-11-23T21:09:11.237Z,61.25
2022-11-23T21:11:59.486Z,63.17
2022-11-23T21:14:30.657Z,57.80
2022-11-23T21:17:01.324Z,62.60
2022-11-23T21:19:32.021Z,65.97
2022-11-23T21:22:03.902Z,60.55
2022-11-23T21:24:35.412Z,53.33
2022-11-23T21:27:07.952Z,57.47
2022-11-23T21:29:38.086Z,64.85
2022-11-23T21:32:07.427Z,67.47
2022-11-23T21:34:37.312Z,53.38
2022-11-23T21:37:06.673Z,64.32
2022-11-23T21:39:35.917Z,68.93
2022-11-23T21:42:09.764Z,63.90
2022-11-23T21:44:38.782Z,65.45
2022-11-23T21:47:08.185Z,74.18
2022-11-23T21:49:37.584Z,65.40
2022-11-23T21:52:09.008Z,65.20
2022-11-23T21:54:38.137Z,65.53
2022-11-23T21:57:09.134Z,57.70
2022-11-23T21:59:38.537Z,68.93
2022-11-23T22:02:08.198Z,69.82
2022-11-23T22:04:39.095Z,71.25
2022-11-23T22:07:08.731Z,61.33
2022-11-23T22:09:38.161Z,68.05
2022-11-23T22:12:09.196Z,69.55
2022-11-23T22:14:38.435Z,75.50
2022-11-23T22:17:08.022Z,69.35
2022-11-23T22:19:37.354Z,57.47
2022-11-23T22:22:07.568Z,59.47
2022-11-23T22:24:36.715Z,52.55
2022-11-23T22:27:06.261Z,63.83
2022-11-23T22:29:36.940Z,55.83
2022-11-23T22:32:06.656Z,61.05
2022-11-23T22:34:36.140Z,50.78
2022-11-23T22:37:10.401Z,43.85
2022-11-23T22:39:40.143Z,51.22
2022-11-23T22:42:09.729Z,59.38
2022-11-23T22:44:40.485Z,56.25
2022-11-23T22:47:10.552Z,58.70
2022-11-23T22:49:39.881Z,56.85
2022-11-23T22:52:09.352Z,54.78
2022-11-23T22:54:38.649Z,55.92
2022-11-23T22:57:08.261Z,54.47
2022-11-23T22:59:37.449Z,46.47
2022-11-23T23:02:08.437Z,56.53
2022-11-23T23:04:37.994Z,41.78
2022-11-23T23:07:07.581Z,50.95
2022-11-23T23:09:36.802Z,50.40
2022-11-23T23:12:06.764Z,69.85
2022-11-23T23:14:37.007Z,55.10
2022-11-23T23:17:08.064Z,51.80
2022-11-23T23:19:37.666Z,52.85
2022-11-23T23:22:07.442Z,49.63
2022-11-23T23:24:36.988Z,52.85
2022-11-23T23:27:06.387Z,64.10
2022-11-23T23:29:35.552Z,51.95
2022-11-23T23:32:05.281Z,63.20
2022-11-23T23:34:35.877Z,64.35
2022-11-23T23:37:05.340Z,57.92
2022-11-23T23:39:34.678Z,66.47
2022-11-23T23:42:04.228Z,62.88
2022-11-23T23:44:34.452Z,70.43
2022-11-23T23:47:04.229Z,66.88
2022-11-23T23:49:34.787Z,62.58
2022-11-23T23:52:05.772Z,67.70
2022-11-23T23:54:35.168Z,67.15
2022-11-23T23:57:04.860Z,64.68
2022-11-23T23:59:34.021Z,66.78
